sensor_id;sensor_type;location;lat;lon;timestamp;P1;durP1;ratioP1;P2;durP2;ratioP2
22883;SDS011;13386;24.786;110.488;2023-11-18T00:02:23;29.77;;;9.30;;
22883;SDS011;13386;24.786;110.488;2023-11-18T00:04:53;29.55;;;8.77;;
22883;SDS011;13386;24.786;110.488;2023-11-18T00:07:23;31.67;;;8.98;;
22883;SDS011;13386;24.786;110.488;2023-11-18T00:09:53;30.60;;;9.05;;
22883;SDS011;13386;24.786;110.488;2023-11-18T00:12:25;25.52;;;8.95;;
22883;SDS011;13386;24.786;110.488;2023-11-18T00:14:56;27.88;;;9.13;;
22883;SDS011;13386;24.786;110.488;2023-11-18T00:17:26;24.48;;;9.18;;
22883;SDS011;13386;24.786;110.488;2023-11-18T00:19:56;25.02;;;8.80;;
22883;SDS011;13386;24.786;110.488;2023-11-18T00:22:26;25.58;;;8.57;;
22883;SDS011;13386;24.786;110.488;2023-11-18T00:24:56;29.48;;;9.20;;
22883;SDS011;13386;24.786;110.488;2023-11-18T00:27:28;22.92;;;8.27;;
22883;SDS011;13386;24.786;110.488;2023-11-18T00:29:59;30.52;;;8.30;;
22883;SDS011;13386;24.786;110.488;2023-11-18T00:32:31;32.28;;;9.00;;
22883;SDS011;13386;24.786;110.488;2023-11-18T00:35:02;31.77;;;8.75;;
22883;SDS011;13386;24.786;110.488;2023-11-18T00:37:32;29.67;;;9.15;;
22883;SDS011;13386;24.786;110.488;2023-11-18T00:40:03;29.67;;;8.55;;
22883;SDS011;13386;24.786;110.488;2023-11-18T00:42:35;26.65;;;9.00;;
22883;SDS011;13386;24.786;110.488;2023-11-18T00:45:06;25.80;;;7.80;;
22883;SDS011;13386;24.786;110.488;2023-11-18T00:47:36;33.13;;;9.57;;
22883;SDS011;13386;24.786;110.488;2023-11-18T00:50:08;29.75;;;9.43;;
22883;SDS011;13386;24.786;110.488;2023-11-18T00:52:41;34.88;;;10.93;;
22883;SDS011;13386;24.786;110.488;2023-11-18T00:55:11;28.75;;;9.48;;
22883;SDS011;13386;24.786;110.488;2023-11-18T00:57:44;30.23;;;9.88;;
22883;SDS011;13386;24.786;110.488;2023-11-18T01:00:14;28.10;;;8.68;;
22883;SDS011;13386;24.786;110.488;2023-11-18T01:02:51;53.25;;;14.10;;
22883;SDS011;13386;24.786;110.488;2023-11-18T01:05:21;44.65;;;12.65;;
22883;SDS011;13386;24.786;110.488;2023-11-18T01:07:51;28.67;;;9.55;;
22883;SDS011;13386;24.786;110.488;2023-11-18T01:10:21;34.70;;;9.30;;
22883;SDS011;13386;24.786;110.488;2023-11-18T01:12:53;31.65;;;9.80;;
22883;SDS011;13386;24.786;110.488;2023-11-18T01:15:25;34.63;;;10.38;;
22883;SDS011;13386;24.786;110.488;2023-11-18T01:17:56;30.75;;;9.68;;
22883;SDS011;13386;24.786;110.488;2023-11-18T01:20:27;34.10;;;10.63;;
22883;SDS011;13386;24.786;110.488;2023-11-18T01:22:57;32.78;;;10.25;;
22883;SDS011;13386;24.786;110.488;2023-11-18T01:25:27;33.97;;;9.88;;
22883;SDS011;13386;24.786;110.488;2023-11-18T01:28:01;31.38;;;9.88;;
22883;SDS011;13386;24.786;110.488;2023-11-18T01:30:31;27.13;;;9.02;;
22883;SDS011;13386;24.786;110.488;2023-11-18T01:33:02;36.60;;;10.65;;
22883;SDS011;13386;24.786;110.488;2023-11-18T01:35:32;34.25;;;9.48;;
22883;SDS011;13386;24.786;110.488;2023-11-18T01:38:02;27.67;;;9.30;;
22883;SDS011;13386;24.786;110.488;2023-11-18T01:40:34;24.77;;;8.75;;
22883;SDS011;13386;24.786;110.488;2023-11-18T01:43:07;30.95;;;8.68;;
22883;SDS011;13386;24.786;110.488;2023-11-18T01:45:42;31.35;;;9.70;;
22883;SDS011;13386;24.786;110.488;2023-11-18T01:48:13;30.05;;;9.32;;
22883;SDS011;13386;24.786;110.488;2023-11-18T01:50:43;33.75;;;9.70;;
22883;SDS011;13386;24.786;110.488;2023-11-18T01:53:15;32.55;;;9.32;;
22883;SDS011;13386;24.786;110.488;2023-11-18T01:55:45;27.65;;;9.27;;
22883;SDS011;13386;24.786;110.488;2023-11-18T01:58:19;34.08;;;9.20;;
22883;SDS011;13386;24.786;110.488;2023-11-18T02:00:50;34.58;;;9.45;;
22883;SDS011;13386;24.786;110.488;2023-11-18T02:03:21;26.92;;;9.13;;
22883;SDS011;13386;24.786;110.488;2023-11-18T02:05:52;31.98;;;9.55;;
22883;SDS011;13386;24.786;110.488;2023-11-18T02:08:23;31.90;;;8.88;;
22883;SDS011;13386;24.786;110.488;2023-11-18T02:10:54;29.13;;;8.75;;
22883;SDS011;13386;24.786;110.488;2023-11-18T02:13:28;35.95;;;9.48;;
22883;SDS011;13386;24.786;110.488;2023-11-18T02:15:59;36.63;;;9.18;;
22883;SDS011;13386;24.786;110.488;2023-11-18T02:18:29;30.30;;;9.30;;
22883;SDS011;13386;24.786;110.488;2023-11-18T02:21:00;31.88;;;9.50;;
22883;SDS011;13386;24.786;110.488;2023-11-18T02:23:32;32.03;;;9.35;;
22883;SDS011;13386;24.786;110.488;2023-11-18T02:26:04;27.45;;;8.48;;
22883;SDS011;13386;24.786;110.488;2023-11-18T02:28:34;30.02;;;8.20;;
22883;SDS011;13386;24.786;110.488;2023-11-18T02:31:06;28.30;;;8.80;;
22883;SDS011;13386;24.786;110.488;2023-11-18T02:33:45;24.33;;;8.00;;
22883;SDS011;13386;24.786;110.488;2023-11-18T02:38:51;30.77;;;8.57;;
22883;SDS011;13386;24.786;110.488;2023-11-18T02:41:25;25.35;;;7.15;;
22883;SDS011;13386;24.786;110.488;2023-11-18T02:43:56;21.30;;;6.93;;
22883;SDS011;13386;24.786;110.488;2023-11-18T02:46:27;25.98;;;6.78;;
22883;SDS011;13386;24.786;110.488;2023-11-18T02:48:58;23.98;;;6.72;;
22883;SDS011;13386;24.786;110.488;2023-11-18T02:51:28;28.27;;;7.50;;
22883;SDS011;13386;24.786;110.488;2023-11-18T02:53:59;21.80;;;6.97;;
22883;SDS011;13386;24.786;110.488;2023-11-18T02:56:31;25.48;;;7.38;;
22883;SDS011;13386;24.786;110.488;2023-11-18T02:59:01;30.00;;;8.15;;
22883;SDS011;13386;24.786;110.488;2023-11-18T03:01:32;22.77;;;7.85;;
22883;SDS011;13386;24.786;110.488;2023-11-18T03:04:02;24.48;;;7.63;;
22883;SDS011;13386;24.786;110.488;2023-11-18T03:06:33;27.20;;;7.65;;
22883;SDS011;13386;24.786;110.488;2023-11-18T03:09:03;26.10;;;8.02;;
22883;SDS011;13386;24.786;110.488;2023-11-18T03:11:36;24.00;;;7.13;;
22883;SDS011;13386;24.786;110.488;2023-11-18T03:14:07;27.55;;;7.60;;
22883;SDS011;13386;24.786;110.488;2023-11-18T03:16:41;29.67;;;6.95;;
22883;SDS011;13386;24.786;110.488;2023-11-18T03:19:12;28.45;;;7.93;;
22883;SDS011;13386;24.786;110.488;2023-11-18T03:21:42;27.83;;;8.38;;
22883;SDS011;13386;24.786;110.488;2023-11-18T03:24:13;31.05;;;8.13;;
22883;SDS011;13386;24.786;110.488;2023-11-18T03:26:45;24.10;;;7.40;;
22883;SDS011;13386;24.786;110.488;2023-11-18T03:29:18;22.58;;;6.10;;
22883;SDS011;13386;24.786;110.488;2023-11-18T03:31:50;24.98;;;6.85;;
22883;SDS011;13386;24.786;110.488;2023-11-18T03:34:21;25.95;;;6.45;;
22883;SDS011;13386;24.786;110.488;2023-11-18T03:36:51;25.85;;;6.85;;
22883;SDS011;13386;24.786;110.488;2023-11-18T03:39:24;22.80;;;6.95;;
22883;SDS011;13386;24.786;110.488;2023-11-18T03:41:55;24.80;;;6.45;;
22883;SDS011;13386;24.786;110.488;2023-11-18T03:44:26;21.70;;;6.28;;
22883;SDS011;13386;24.786;110.488;2023-11-18T03:46:56;26.27;;;6.25;;
22883;SDS011;13386;24.786;110.488;2023-11-18T03:49:30;25.75;;;6.85;;
22883;SDS011;13386;24.786;110.488;2023-11-18T03:52:04;22.65;;;6.72;;
22883;SDS011;13386;24.786;110.488;2023-11-18T03:54:34;22.10;;;6.72;;
22883;SDS011;13386;24.786;110.488;2023-11-18T03:57:12;25.90;;;6.45;;
22883;SDS011;13386;24.786;110.488;2023-11-18T03:59:48;27.15;;;6.35;;
22883;SDS011;13386;24.786;110.488;2023-11-18T04:02:19;26.05;;;6.35;;
22883;SDS011;13386;24.786;110.488;2023-11-18T04:04:50;20.27;;;6.60;;
22883;SDS011;13386;24.786;110.488;2023-11-18T04:07:23;26.23;;;7.00;;
22883;SDS011;13386;24.786;110.488;2023-11-18T04:09:59;23.05;;;6.30;;
22883;SDS011;13386;24.786;110.488;2023-11-18T04:12:31;29.88;;;7.38;;
22883;SDS011;13386;24.786;110.488;2023-11-18T04:15:07;21.50;;;5.50;;
22883;SDS011;13386;24.786;110.488;2023-11-18T04:17:38;29.52;;;6.25;;
22883;SDS011;13386;24.786;110.488;2023-11-18T04:20:13;21.00;;;4.90;;
22883;SDS011;13386;24.786;110.488;2023-11-18T04:22:43;32.40;;;5.53;;
22883;SDS011;13386;24.786;110.488;2023-11-18T04:25:16;24.73;;;5.38;;
22883;SDS011;13386;24.786;110.488;2023-11-18T04:27:50;16.48;;;5.25;;
22883;SDS011;13386;24.786;110.488;2023-11-18T04:30:21;19.55;;;5.30;;
22883;SDS011;13386;24.786;110.488;2023-11-18T04:32:53;24.10;;;4.97;;
22883;SDS011;13386;24.786;110.488;2023-11-18T04:35:23;20.38;;;4.50;;
22883;SDS011;13386;24.786;110.488;2023-11-18T04:37:55;17.75;;;4.38;;
22883;SDS011;13386;24.786;110.488;2023-11-18T04:40:25;15.82;;;4.38;;
22883;SDS011;13386;24.786;110.488;2023-11-18T04:42:59;19.23;;;4.65;;
22883;SDS011;13386;24.786;110.488;2023-11-18T04:45:31;18.17;;;4.90;;
22883;SDS011;13386;24.786;110.488;2023-11-18T04:48:02;18.55;;;4.53;;
22883;SDS011;13386;24.786;110.488;2023-11-18T04:50:34;13.43;;;3.75;;
22883;SDS011;13386;24.786;110.488;2023-11-18T04:53:06;14.80;;;4.35;;
22883;SDS011;13386;24.786;110.488;2023-11-18T04:55:37;15.48;;;4.05;;
22883;SDS011;13386;24.786;110.488;2023-11-18T04:58:09;17.20;;;4.00;;
22883;SDS011;13386;24.786;110.488;2023-11-18T05:00:39;13.55;;;3.80;;
22883;SDS011;13386;24.786;110.488;2023-11-18T05:03:12;15.63;;;4.28;;
22883;SDS011;13386;24.786;110.488;2023-11-18T05:05:49;15.88;;;4.22;;
22883;SDS011;13386;24.786;110.488;2023-11-18T05:08:20;14.52;;;4.03;;
22883;SDS011;13386;24.786;110.488;2023-11-18T05:10:50;14.68;;;4.32;;
22883;SDS011;13386;24.786;110.488;2023-11-18T05:13:24;23.73;;;4.57;;
22883;SDS011;13386;24.786;110.488;2023-11-18T05:15:56;16.70;;;4.25;;
22883;SDS011;13386;24.786;110.488;2023-11-18T05:18:28;17.55;;;4.35;;
22883;SDS011;13386;24.786;110.488;2023-11-18T05:21:02;13.15;;;3.78;;
22883;SDS011;13386;24.786;110.488;2023-11-18T05:23:39;15.98;;;3.83;;
22883;SDS011;13386;24.786;110.488;2023-11-18T05:26:10;15.65;;;3.80;;
22883;SDS011;13386;24.786;110.488;2023-11-18T05:28:42;18.10;;;3.60;;
22883;SDS011;13386;24.786;110.488;2023-11-18T05:31:13;21.48;;;4.75;;
22883;SDS011;13386;24.786;110.488;2023-11-18T05:33:43;14.30;;;3.60;;
22883;SDS011;13386;24.786;110.488;2023-11-18T05:36:21;16.02;;;3.92;;
22883;SDS011;13386;24.786;110.488;2023-11-18T05:38:57;22.52;;;5.20;;
22883;SDS011;13386;24.786;110.488;2023-11-18T05:41:32;18.00;;;4.15;;
22883;SDS011;13386;24.786;110.488;2023-11-18T05:44:08;15.32;;;4.60;;
22883;SDS011;13386;24.786;110.488;2023-11-18T05:46:45;16.30;;;4.40;;
22883;SDS011;13386;24.786;110.488;2023-11-18T05:49:21;16.67;;;4.47;;
22883;SDS011;13386;24.786;110.488;2023-11-18T05:51:53;14.93;;;4.32;;
22883;SDS011;13386;24.786;110.488;2023-11-18T05:54:24;15.93;;;4.50;;
22883;SDS011;13386;24.786;110.488;2023-11-18T05:57:00;15.70;;;4.38;;
22883;SDS011;13386;24.786;110.488;2023-11-18T05:59:33;22.27;;;4.50;;
22883;SDS011;13386;24.786;110.488;2023-11-18T06:02:06;21.67;;;4.35;;
22883;SDS011;13386;24.786;110.488;2023-11-18T06:04:44;17.77;;;4.15;;
22883;SDS011;13386;24.786;110.488;2023-11-18T06:07:16;17.13;;;4.18;;
22883;SDS011;13386;24.786;110.488;2023-11-18T06:09:47;25.67;;;4.82;;
22883;SDS011;13386;24.786;110.488;2023-11-18T06:12:18;24.80;;;4.78;;
22883;SDS011;13386;24.786;110.488;2023-11-18T06:14:52;18.77;;;4.60;;
22883;SDS011;13386;24.786;110.488;2023-11-18T06:17:22;16.88;;;4.50;;
22883;SDS011;13386;24.786;110.488;2023-11-18T06:19:52;15.73;;;4.38;;
22883;SDS011;13386;24.786;110.488;2023-11-18T06:22:22;18.52;;;4.70;;
22883;SDS011;13386;24.786;110.488;2023-11-18T06:24:53;18.65;;;4.80;;
22883;SDS011;13386;24.786;110.488;2023-11-18T06:27:24;18.02;;;4.80;;
22883;SDS011;13386;24.786;110.488;2023-11-18T06:29:56;20.35;;;5.00;;
22883;SDS011;13386;24.786;110.488;2023-11-18T06:32:31;18.75;;;4.20;;
22883;SDS011;13386;24.786;110.488;2023-11-18T06:35:04;16.23;;;4.18;;
22883;SDS011;13386;24.786;110.488;2023-11-18T06:37:35;22.90;;;4.32;;
22883;SDS011;13386;24.786;110.488;2023-11-18T06:40:06;13.10;;;3.78;;
22883;SDS011;13386;24.786;110.488;2023-11-18T06:42:43;19.98;;;3.92;;
22883;SDS011;13386;24.786;110.488;2023-11-18T06:45:18;13.52;;;3.38;;
22883;SDS011;13386;24.786;110.488;2023-11-18T06:47:49;17.75;;;3.60;;
22883;SDS011;13386;24.786;110.488;2023-11-18T06:50:21;15.02;;;4.00;;
22883;SDS011;13386;24.786;110.488;2023-11-18T06:52:53;13.07;;;3.55;;
22883;SDS011;13386;24.786;110.488;2023-11-18T06:55:24;19.50;;;4.43;;
22883;SDS011;13386;24.786;110.488;2023-11-18T06:57:55;15.77;;;4.15;;
22883;SDS011;13386;24.786;110.488;2023-11-18T07:00:28;13.98;;;4.28;;
22883;SDS011;13386;24.786;110.488;2023-11-18T07:03:02;11.07;;;3.10;;
22883;SDS011;13386;24.786;110.488;2023-11-18T07:05:32;18.35;;;4.18;;
22883;SDS011;13386;24.786;110.488;2023-11-18T07:08:06;15.30;;;4.07;;
22883;SDS011;13386;24.786;110.488;2023-11-18T07:10:37;19.00;;;3.88;;
22883;SDS011;13386;24.786;110.488;2023-11-18T07:13:11;21.90;;;4.53;;
22883;SDS011;13386;24.786;110.488;2023-11-18T07:15:48;18.90;;;4.20;;
22883;SDS011;13386;24.786;110.488;2023-11-18T07:18:20;12.20;;;3.75;;
22883;SDS011;13386;24.786;110.488;2023-11-18T07:20:50;15.82;;;4.15;;
22883;SDS011;13386;24.786;110.488;2023-11-18T07:23:21;16.55;;;3.75;;
22883;SDS011;13386;24.786;110.488;2023-11-18T07:25:52;17.90;;;4.05;;
22883;SDS011;13386;24.786;110.488;2023-11-18T07:28:24;17.23;;;3.67;;
22883;SDS011;13386;24.786;110.488;2023-11-18T07:30:59;15.23;;;4.00;;
22883;SDS011;13386;24.786;110.488;2023-11-18T07:33:33;14.68;;;3.47;;
22883;SDS011;13386;24.786;110.488;2023-11-18T07:36:04;19.67;;;4.30;;
22883;SDS011;13386;24.786;110.488;2023-11-18T07:38:40;18.85;;;4.07;;
22883;SDS011;13386;24.786;110.488;2023-11-18T07:41:12;12.52;;;3.88;;
22883;SDS011;13386;24.786;110.488;2023-11-18T07:43:52;17.92;;;4.55;;
22883;SDS011;13386;24.786;110.488;2023-11-18T07:46:26;20.08;;;4.68;;
22883;SDS011;13386;24.786;110.488;2023-11-18T07:48:57;18.92;;;4.70;;
22883;SDS011;13386;24.786;110.488;2023-11-18T07:51:32;18.65;;;4.65;;
22883;SDS011;13386;24.786;110.488;2023-11-18T07:54:08;21.73;;;5.53;;
22883;SDS011;13386;24.786;110.488;2023-11-18T07:56:40;18.92;;;4.85;;
22883;SDS011;13386;24.786;110.488;2023-11-18T07:59:20;22.65;;;5.00;;
22883;SDS011;13386;24.786;110.488;2023-11-18T08:01:55;17.95;;;5.32;;
22883;SDS011;13386;24.786;110.488;2023-11-18T08:04:25;26.13;;;5.10;;
22883;SDS011;13386;24.786;110.488;2023-11-18T08:06:58;22.88;;;6.07;;
22883;SDS011;13386;24.786;110.488;2023-11-18T08:09:28;25.80;;;5.05;;
22883;SDS011;13386;24.786;110.488;2023-11-18T08:11:58;27.95;;;4.82;;
22883;SDS011;13386;24.786;110.488;2023-11-18T08:14:30;24.65;;;5.55;;
22883;SDS011;13386;24.786;110.488;2023-11-18T08:17:06;21.98;;;5.90;;
22883;SDS011;13386;24.786;110.488;2023-11-18T08:19:36;30.27;;;6.43;;
22883;SDS011;13386;24.786;110.488;2023-11-18T08:22:08;26.00;;;6.20;;
22883;SDS011;13386;24.786;110.488;2023-11-18T08:24:40;24.63;;;6.35;;
22883;SDS011;13386;24.786;110.488;2023-11-18T08:27:13;30.10;;;7.32;;
22883;SDS011;13386;24.786;110.488;2023-11-18T08:29:44;32.08;;;6.65;;
22883;SDS011;13386;24.786;110.488;2023-11-18T08:32:18;25.70;;;6.65;;
22883;SDS011;13386;24.786;110.488;2023-11-18T08:34:51;23.55;;;6.18;;
22883;SDS011;13386;24.786;110.488;2023-11-18T08:37:22;24.98;;;5.80;;
22883;SDS011;13386;24.786;110.488;2023-11-18T08:39:53;25.88;;;6.50;;
22883;SDS011;13386;24.786;110.488;2023-11-18T08:42:24;24.25;;;5.68;;
22883;SDS011;13386;24.786;110.488;2023-11-18T08:44:54;19.63;;;6.05;;
22883;SDS011;13386;24.786;110.488;2023-11-18T08:47:27;35.17;;;6.22;;
22883;SDS011;13386;24.786;110.488;2023-11-18T08:49:58;21.50;;;6.00;;
22883;SDS011;13386;24.786;110.488;2023-11-18T08:52:38;31.98;;;7.10;;
22883;SDS011;13386;24.786;110.488;2023-11-18T08:55:14;21.48;;;5.82;;
22883;SDS011;13386;24.786;110.488;2023-11-18T08:57:48;35.90;;;7.30;;
22883;SDS011;13386;24.786;110.488;2023-11-18T09:00:26;33.08;;;7.70;;
22883;SDS011;13386;24.786;110.488;2023-11-18T09:03:17;24.00;;;6.00;;
22883;SDS011;13386;24.786;110.488;2023-11-18T09:05:53;25.35;;;6.25;;
22883;SDS011;13386;24.786;110.488;2023-11-18T09:08:31;30.38;;;6.93;;
22883;SDS011;13386;24.786;110.488;2023-11-18T09:11:05;25.42;;;6.18;;
22883;SDS011;13386;24.786;110.488;2023-11-18T09:13:37;31.65;;;6.78;;
22883;SDS011;13386;24.786;110.488;2023-11-18T09:16:08;25.75;;;6.25;;
22883;SDS011;13386;24.786;110.488;2023-11-18T09:18:41;27.50;;;6.22;;
22883;SDS011;13386;24.786;110.488;2023-11-18T09:21:12;28.05;;;6.75;;
22883;SDS011;13386;24.786;110.488;2023-11-18T09:23:46;28.50;;;6.43;;
22883;SDS011;13386;24.786;110.488;2023-11-18T09:26:19;32.45;;;6.57;;
22883;SDS011;13386;24.786;110.488;2023-11-18T09:28:52;28.63;;;6.97;;
22883;SDS011;13386;24.786;110.488;2023-11-18T09:31:24;22.65;;;6.80;;
22883;SDS011;13386;24.786;110.488;2023-11-18T09:33:56;26.25;;;6.72;;
22883;SDS011;13386;24.786;110.488;2023-11-18T09:36:33;31.75;;;6.72;;
22883;SDS011;13386;24.786;110.488;2023-11-18T09:39:04;28.20;;;6.68;;
22883;SDS011;13386;24.786;110.488;2023-11-18T09:41:46;31.45;;;7.65;;
22883;SDS011;13386;24.786;110.488;2023-11-18T09:44:16;30.23;;;6.15;;
22883;SDS011;13386;24.786;110.488;2023-11-18T09:46:49;25.45;;;7.47;;
22883;SDS011;13386;24.786;110.488;2023-11-18T09:49:28;40.90;;;7.78;;
22883;SDS011;13386;24.786;110.488;2023-11-18T09:52:06;46.67;;;9.40;;
22883;SDS011;13386;24.786;110.488;2023-11-18T09:54:40;43.22;;;9.65;;
22883;SDS011;13386;24.786;110.488;2023-11-18T09:57:21;46.45;;;10.63;;
22883;SDS011;13386;24.786;110.488;2023-11-18T09:59:54;43.38;;;10.43;;
22883;SDS011;13386;24.786;110.488;2023-11-18T10:02:26;52.15;;;11.75;;
22883;SDS011;13386;24.786;110.488;2023-11-18T10:05:03;53.33;;;12.15;;
22883;SDS011;13386;24.786;110.488;2023-11-18T10:07:39;45.78;;;11.18;;
22883;SDS011;13386;24.786;110.488;2023-11-18T10:10:14;108.40;;;18.23;;
22883;SDS011;13386;24.786;110.488;2023-11-18T10:12:47;74.95;;;14.90;;
22883;SDS011;13386;24.786;110.488;2023-11-18T10:15:20;77.95;;;14.20;;
22883;SDS011;13386;24.786;110.488;2023-11-18T10:17:52;70.70;;;15.45;;
22883;SDS011;13386;24.786;110.488;2023-11-18T10:20:43;66.53;;;14.93;;
22883;SDS011;13386;24.786;110.488;2023-11-18T10:23:19;45.00;;;11.50;;
22883;SDS011;13386;24.786;110.488;2023-11-18T10:25:50;77.90;;;14.23;;
22883;SDS011;13386;24.786;110.488;2023-11-18T10:28:27;83.15;;;14.40;;
22883;SDS011;13386;24.786;110.488;2023-11-18T10:30:59;73.00;;;14.48;;
22883;SDS011;13386;24.786;110.488;2023-11-18T10:33:32;68.70;;;17.50;;
22883;SDS011;13386;24.786;110.488;2023-11-18T10:36:06;58.35;;;13.80;;
22883;SDS011;13386;24.786;110.488;2023-11-18T10:38:40;64.15;;;15.70;;
22883;SDS011;13386;24.786;110.488;2023-11-18T10:41:17;54.40;;;13.02;;
22883;SDS011;13386;24.786;110.488;2023-11-18T10:43:47;60.72;;;13.18;;
22883;SDS011;13386;24.786;110.488;2023-11-18T10:46:19;53.03;;;12.85;;
22883;SDS011;13386;24.786;110.488;2023-11-18T10:48:50;52.83;;;12.57;;
22883;SDS011;13386;24.786;110.488;2023-11-18T10:51:25;62.15;;;13.88;;
22883;SDS011;13386;24.786;110.488;2023-11-18T10:53:57;53.30;;;12.43;;
22883;SDS011;13386;24.786;110.488;2023-11-18T10:56:30;44.55;;;12.10;;
22883;SDS011;13386;24.786;110.488;2023-11-18T10:59:06;48.08;;;12.32;;
22883;SDS011;13386;24.786;110.488;2023-11-18T11:01:40;51.58;;;13.25;;
22883;SDS011;13386;24.786;110.488;2023-11-18T11:04:12;51.10;;;13.30;;
22883;SDS011;13386;24.786;110.488;2023-11-18T11:06:49;48.90;;;13.18;;
22883;SDS011;13386;24.786;110.488;2023-11-18T11:09:25;52.83;;;13.55;;
22883;SDS011;13386;24.786;110.488;2023-11-18T11:11:56;51.47;;;12.80;;
22883;SDS011;13386;24.786;110.488;2023-11-18T11:14:33;54.55;;;12.48;;
22883;SDS011;13386;24.786;110.488;2023-11-18T11:17:05;49.92;;;12.68;;
22883;SDS011;13386;24.786;110.488;2023-11-18T11:19:45;47.05;;;12.45;;
22883;SDS011;13386;24.786;110.488;2023-11-18T11:22:20;48.70;;;12.15;;
22883;SDS011;13386;24.786;110.488;2023-11-18T11:24:54;55.25;;;13.05;;
22883;SDS011;13386;24.786;110.488;2023-11-18T11:27:33;50.45;;;13.23;;
22883;SDS011;13386;24.786;110.488;2023-11-18T11:30:08;44.22;;;12.32;;
22883;SDS011;13386;24.786;110.488;2023-11-18T11:32:45;42.72;;;12.35;;
22883;SDS011;13386;24.786;110.488;2023-11-18T11:35:19;45.55;;;12.77;;
22883;SDS011;13386;24.786;110.488;2023-11-18T11:37:51;40.72;;;12.05;;
22883;SDS011;13386;24.786;110.488;2023-11-18T11:40:31;41.78;;;11.85;;
22883;SDS011;13386;24.786;110.488;2023-11-18T11:43:10;39.50;;;11.93;;
22883;SDS011;13386;24.786;110.488;2023-11-18T11:45:49;48.28;;;12.48;;
22883;SDS011;13386;24.786;110.488;2023-11-18T11:48:22;37.03;;;11.23;;
22883;SDS011;13386;24.786;110.488;2023-11-18T11:53:47;37.92;;;11.70;;
22883;SDS011;13386;24.786;110.488;2023-11-18T11:56:19;50.30;;;13.15;;
22883;SDS011;13386;24.786;110.488;2023-11-18T11:58:51;51.47;;;12.77;;
22883;SDS011;13386;24.786;110.488;2023-11-18T12:01:32;44.00;;;12.77;;
22883;SDS011;13386;24.786;110.488;2023-11-18T12:04:06;47.90;;;13.63;;
22883;SDS011;13386;24.786;110.488;2023-11-18T12:06:47;46.20;;;13.73;;
22883;SDS011;13386;24.786;110.488;2023-11-18T12:09:22;46.72;;;12.93;;
22883;SDS011;13386;24.786;110.488;2023-11-18T12:11:59;46.22;;;13.35;;
22883;SDS011;13386;24.786;110.488;2023-11-18T12:14:30;47.58;;;12.82;;
22883;SDS011;13386;24.786;110.488;2023-11-18T12:17:08;39.88;;;12.75;;
22883;SDS011;13386;24.786;110.488;2023-11-18T12:19:41;49.15;;;14.77;;
22883;SDS011;13386;24.786;110.488;2023-11-18T12:22:15;50.17;;;14.18;;
22883;SDS011;13386;24.786;110.488;2023-11-18T12:27:46;56.10;;;14.35;;
22883;SDS011;13386;24.786;110.488;2023-11-18T12:33:08;44.28;;;14.10;;
22883;SDS011;13386;24.786;110.488;2023-11-18T12:38:57;46.10;;;12.95;;
22883;SDS011;13386;24.786;110.488;2023-11-18T12:41:34;45.17;;;13.73;;
22883;SDS011;13386;24.786;110.488;2023-11-18T12:44:22;47.00;;;13.73;;
22883;SDS011;13386;24.786;110.488;2023-11-18T12:46:59;52.08;;;15.10;;
22883;SDS011;13386;24.786;110.488;2023-11-18T12:49:38;43.95;;;13.00;;
22883;SDS011;13386;24.786;110.488;2023-11-18T12:52:10;45.90;;;13.63;;
22883;SDS011;13386;24.786;110.488;2023-11-18T12:54:44;47.38;;;13.63;;
22883;SDS011;13386;24.786;110.488;2023-11-18T12:57:19;45.63;;;13.32;;
22883;SDS011;13386;24.786;110.488;2023-11-18T12:59:54;45.08;;;13.68;;
22883;SDS011;13386;24.786;110.488;2023-11-18T13:02:24;46.70;;;13.13;;
22883;SDS011;13386;24.786;110.488;2023-11-18T13:05:04;46.92;;;13.63;;
22883;SDS011;13386;24.786;110.488;2023-11-18T13:07:37;43.97;;;13.55;;
22883;SDS011;13386;24.786;110.488;2023-11-18T13:10:10;48.63;;;13.93;;
22883;SDS011;13386;24.786;110.488;2023-11-18T13:12:49;45.55;;;14.50;;
22883;SDS011;13386;24.786;110.488;2023-11-18T13:15:21;63.78;;;18.95;;
22883;SDS011;13386;24.786;110.488;2023-11-18T13:18:00;51.95;;;14.85;;
22883;SDS011;13386;24.786;110.488;2023-11-18T13:20:33;47.22;;;14.13;;
22883;SDS011;13386;24.786;110.488;2023-11-18T13:23:25;52.08;;;14.05;;
22883;SDS011;13386;24.786;110.488;2023-11-18T13:26:06;46.88;;;14.00;;
22883;SDS011;13386;24.786;110.488;2023-11-18T13:28:38;46.75;;;13.57;;
22883;SDS011;13386;24.786;110.488;2023-11-18T13:31:13;43.45;;;13.25;;
22883;SDS011;13386;24.786;110.488;2023-11-18T13:33:48;50.60;;;14.13;;
22883;SDS011;13386;24.786;110.488;2023-11-18T13:36:39;47.08;;;13.90;;
22883;SDS011;13386;24.786;110.488;2023-11-18T13:39:16;48.35;;;14.45;;
22883;SDS011;13386;24.786;110.488;2023-11-18T13:41:48;48.17;;;14.13;;
22883;SDS011;13386;24.786;110.488;2023-11-18T13:44:34;48.38;;;13.45;;
22883;SDS011;13386;24.786;110.488;2023-11-18T13:47:11;52.55;;;14.77;;
22883;SDS011;13386;24.786;110.488;2023-11-18T13:49:44;49.97;;;14.30;;
22883;SDS011;13386;24.786;110.488;2023-11-18T13:52:15;50.70;;;14.63;;
22883;SDS011;13386;24.786;110.488;2023-11-18T13:55:00;49.13;;;14.70;;
22883;SDS011;13386;24.786;110.488;2023-11-18T13:57:34;58.08;;;15.45;;
22883;SDS011;13386;24.786;110.488;2023-11-18T14:00:07;52.60;;;14.68;;
22883;SDS011;13386;24.786;110.488;2023-11-18T14:02:46;49.75;;;14.40;;
22883;SDS011;13386;24.786;110.488;2023-11-18T14:05:20;55.47;;;15.98;;
22883;SDS011;13386;24.786;110.488;2023-11-18T14:08:04;54.03;;;15.55;;
22883;SDS011;13386;24.786;110.488;2023-11-18T14:10:39;51.05;;;14.48;;
22883;SDS011;13386;24.786;110.488;2023-11-18T14:13:14;50.67;;;15.38;;
22883;SDS011;13386;24.786;110.488;2023-11-18T14:15:47;50.88;;;14.23;;
22883;SDS011;13386;24.786;110.488;2023-11-18T14:21:30;50.85;;;14.70;;
22883;SDS011;13386;24.786;110.488;2023-11-18T14:24:06;54.75;;;15.45;;
22883;SDS011;13386;24.786;110.488;2023-11-18T14:26:37;50.33;;;15.38;;
22883;SDS011;13386;24.786;110.488;2023-11-18T14:29:08;48.53;;;14.57;;
22883;SDS011;13386;24.786;110.488;2023-11-18T14:31:40;63.60;;;16.20;;
22883;SDS011;13386;24.786;110.488;2023-11-18T14:34:12;55.90;;;15.35;;
22883;SDS011;13386;24.786;110.488;2023-11-18T14:36:45;54.55;;;15.57;;
22883;SDS011;13386;24.786;110.488;2023-11-18T14:39:19;50.63;;;15.95;;
22883;SDS011;13386;24.786;110.488;2023-11-18T14:41:54;54.10;;;15.35;;
22883;SDS011;13386;24.786;110.488;2023-11-18T14:44:24;48.67;;;15.15;;
22883;SDS011;13386;24.786;110.488;2023-11-18T14:46:56;44.72;;;14.18;;
22883;SDS011;13386;24.786;110.488;2023-11-18T14:49:29;51.58;;;15.43;;
22883;SDS011;13386;24.786;110.488;2023-11-18T14:52:06;54.38;;;15.57;;
22883;SDS011;13386;24.786;110.488;2023-11-18T14:54:39;58.20;;;14.82;;
22883;SDS011;13386;24.786;110.488;2023-11-18T14:57:10;51.83;;;15.00;;